Time;durP1;ratioP1;P1;durP2;ratioP2;P2;SDS_P1;SDS_P2;PMS_P1;PMS_P2;Temp;Humidity;BMP_temperature;BMP_pressure;BME280_temperature;BME280_humidity;BME280_pressure;Samples;Min_cycle;Max_cycle;Signal;HPM_P1;HPM_P2
2023/04/01 00:01:05;;;;;;;3.03;1.60;;;;;;;15.18;53.84;98155.59;6160758;23;20502;-89
2023/04/01 00:03:32;;;;;;;4.67;1.20;;;;;;;15.16;54.06;98142.53;6161241;23;20200;-89
2023/04/01 00:05:59;;;;;;;4.07;1.73;;;;;;;15.14;54.13;98152.41;6160367;23;20500;-89
2023/04/01 00:08:26;;;;;;;3.93;1.50;;;;;;;15.17;54.12;98160.03;6186600;23;20247;-89
2023/04/01 00:10:52;;;;;;;2.83;1.10;;;;;;;15.15;54.40;98158.50;6186274;23;20164;-89
2023/04/01 00:13:18;;;;;;;3.20;1.07;;;;;;;15.20;54.16;98157.13;6186519;23;20185;-89
2023/04/01 00:15:44;;;;;;;2.20;0.90;;;;;;;15.14;54.38;98147.13;6186209;23;20176;-88
2023/04/01 00:18:11;;;;;;;2.80;1.10;;;;;;;15.13;54.23;98158.63;6186239;23;20472;-89
2023/04/01 00:20:36;;;;;;;4.63;1.30;;;;;;;15.23;54.31;98153.38;6159608;23;20157;-89
2023/04/01 00:23:02;;;;;;;6.30;1.37;;;;;;;15.25;54.10;98147.00;6160155;23;20546;-88
2023/04/01 00:25:28;;;;;;;2.57;1.03;;;;;;;15.29;54.09;98142.31;6186656;23;20256;-89
2023/04/01 00:27:54;;;;;;;4.33;1.40;;;;;;;15.25;54.25;98133.00;6186305;23;20176;-89
2023/04/01 00:30:19;;;;;;;4.17;0.97;;;;;;;15.24;54.56;98137.44;6160083;23;20235;-89
2023/04/01 00:32:45;;;;;;;4.67;1.07;;;;;;;15.24;54.63;98137.44;6160076;23;20195;-89
2023/04/01 00:35:12;;;;;;;2.10;1.03;;;;;;;15.29;54.27;98137.03;6185956;23;20144;-89
2023/04/01 00:37:39;;;;;;;4.10;1.27;;;;;;;15.27;54.21;98133.69;6159923;23;20155;-89
2023/04/01 00:40:07;;;;;;;1.27;0.70;;;;;;;15.25;54.21;98130.34;6186297;23;20237;-89
2023/04/01 00:42:32;;;;;;;3.00;1.27;;;;;;;15.34;54.01;98121.59;6185825;23;20154;-89
2023/04/01 00:45:18;;;;;;;3.00;1.13;;;;;;;15.34;54.35;98118.97;6159721;23;20201;-89
2023/04/01 00:47:44;;;;;;;3.90;1.53;;;;;;;15.22;54.49;98120.91;6185967;23;20171;-89
2023/04/01 00:50:10;;;;;;;4.30;1.40;;;;;;;15.27;54.59;98117.84;6185695;23;20484;-89
2023/04/01 00:52:35;;;;;;;2.70;0.97;;;;;;;15.33;54.33;98115.50;6186423;23;20149;-89
2023/04/01 00:55:04;;;;;;;2.80;1.40;;;;;;;15.41;53.97;98114.81;6186489;23;20149;-89
2023/04/01 00:57:36;;;;;;;2.97;1.23;;;;;;;15.44;53.78;98118.97;6185819;23;20163;-89
2023/04/01 01:00:07;;;;;;;3.47;1.33;;;;;;;15.45;53.90;98120.66;6186244;23;20160;-89
2023/04/01 01:02:34;;;;;;;3.53;1.07;;;;;;;15.39;53.87;98114.94;6159787;23;20180;-89
2023/04/01 01:05:00;;;;;;;5.77;1.80;;;;;;;15.32;54.17;98116.47;6185550;23;20271;-89
2023/04/01 01:07:45;;;;;;;8.30;1.57;;;;;;;15.34;54.28;98118.97;6159753;23;20509;-89
2023/04/01 01:10:21;;;;;;;2.43;1.20;;;;;;;15.36;53.75;98119.66;6185834;23;20165;-89
2023/04/01 01:13:08;;;;;;;4.07;1.60;;;;;;;15.40;53.81;98123.72;6185946;23;20447;-89
2023/04/01 01:15:45;;;;;;;4.87;1.47;;;;;;;15.51;53.40;98120.16;6186019;23;20153;-89
2023/04/01 01:18:26;;;;;;;3.37;1.37;;;;;;;15.49;53.33;98122.09;6185554;23;20160;-89
2023/04/01 01:21:17;;;;;;;3.10;1.33;;;;;;;15.47;53.37;98121.38;6186652;23;20249;-89
2023/04/01 01:24:19;;;;;;;4.50;1.50;;;;;;;15.45;53.29;98125.94;6185853;23;20670;-89
2023/04/01 01:26:45;;;;;;;10.23;2.30;;;;;;;15.33;53.64;98126.03;6186217;23;20137;-89
2023/04/01 01:29:38;;;;;;;10.93;2.20;;;;;;;15.09;54.70;98130.00;6185820;23;20179;-89
2023/04/01 01:32:52;;;;;;;6.07;2.20;;;;;;;15.07;54.78;98132.75;6159224;23;20569;-89
2023/04/01 01:35:32;;;;;;;15.43;3.53;;;;;;;15.07;54.79;98126.63;6056327;23;20505;-89
2023/04/01 01:38:03;;;;;;;3.47;1.07;;;;;;;15.20;53.89;98127.25;6186076;23;20156;-89
2023/04/01 01:40:32;;;;;;;5.40;1.57;;;;;;;15.24;53.65;98113.66;6185406;23;20557;-89
2023/04/01 01:43:04;;;;;;;7.93;2.40;;;;;;;15.28;53.19;98125.63;6185360;23;20576;-89
2023/04/01 01:45:33;;;;;;;4.27;1.47;;;;;;;15.37;52.93;98122.19;6160059;23;20288;-88
2023/04/01 01:48:00;;;;;;;4.47;1.30;;;;;;;15.34;52.70;98125.09;6185288;23;20165;-90
2023/04/01 01:50:27;;;;;;;1.47;0.97;;;;;;;15.12;53.68;98130.56;6185328;23;20540;-89
2023/04/01 01:53:04;;;;;;;4.50;1.53;;;;;;;15.16;53.42;98142.53;6185301;23;20479;-89
2023/04/01 01:55:35;;;;;;;2.67;0.93;;;;;;;15.26;52.90;98143.41;6185716;23;20259;-89
2023/04/01 01:58:16;;;;;;;3.00;1.27;;;;;;;15.19;53.17;98139.63;6185701;23;20151;-89
2023/04/01 02:00:46;;;;;;;3.53;1.80;;;;;;;15.06;53.20;98131.13;6159376;23;20147;-89
2023/04/01 02:03:14;;;;;;;2.70;1.00;;;;;;;14.98;53.89;98132.72;6185250;23;20142;-89
2023/04/01 02:05:40;;;;;;;3.83;1.17;;;;;;;15.03;53.71;98130.53;6185629;23;20213;-89
2023/04/01 02:08:19;;;;;;;1.73;0.90;;;;;;;15.11;53.17;98138.63;6185216;23;20150;-89
2023/04/01 02:10:55;;;;;;;3.00;1.37;;;;;;;15.07;53.54;98135.41;6170478;23;20178;-88
2023/04/01 02:13:37;;;;;;;5.37;1.60;;;;;;;15.05;53.59;98137.34;6185283;23;20166;-89
2023/04/01 02:16:10;;;;;;;7.83;2.07;;;;;;;15.03;53.75;98126.09;6185613;23;20210;-89
2023/04/01 02:18:38;;;;;;;4.63;2.13;;;;;;;15.04;53.67;98122.47;6184439;23;20142;-89
2023/04/01 02:21:06;;;;;;;5.97;1.73;;;;;;;15.08;53.38;98118.63;6185234;23;20154;-89
2023/04/01 02:23:34;;;;;;;9.20;2.73;;;;;;;15.06;53.42;98103.88;6185147;23;20170;-89
2023/04/01 02:26:00;;;;;;;6.17;2.00;;;;;;;15.08;53.23;98091.38;6185198;23;20162;-89
2023/04/01 02:28:28;;;;;;;5.13;1.93;;;;;;;15.11;53.26;98094.59;6184028;23;20587;-89
2023/04/01 02:30:54;;;;;;;4.33;1.70;;;;;;;15.11;53.27;98102.50;6184342;23;20157;-89
2023/04/01 02:33:20;;;;;;;4.67;1.67;;;;;;;15.20;52.96;98101.69;6184014;23;20177;-89
2023/04/01 02:35:46;;;;;;;5.37;1.30;;;;;;;15.15;52.98;98103.91;6184412;23;20205;-89
2023/04/01 02:38:14;;;;;;;14.10;4.20;;;;;;;15.06;53.38;98098.59;6185148;23;20567;-89
2023/04/01 02:40:49;;;;;;;7.27;2.40;;;;;;;14.95;54.26;98099.53;6185362;23;20147;-89
2023/04/01 02:43:16;;;;;;;4.37;2.20;;;;;;;14.88;54.16;98100.19;6185619;23;20208;-89
2023/04/01 02:45:42;;;;;;;10.10;3.67;;;;;;;14.79;54.65;98109.72;6187390;23;20159;-89
2023/04/01 02:48:08;;;;;;;7.73;2.43;;;;;;;14.81;54.10;98104.31;6187006;23;20162;-89
2023/04/01 02:50:34;;;;;;;6.93;1.60;;;;;;;14.74;54.95;98104.00;6185803;23;20155;-89
2023/04/01 02:53:00;;;;;;;7.33;2.80;;;;;;;14.78;54.71;98102.78;6186085;23;20250;-90
2023/04/01 02:55:25;;;;;;;8.83;1.90;;;;;;;14.79;54.86;98093.91;6187647;23;20151;-88
2023/04/01 02:57:50;;;;;;;5.77;1.37;;;;;;;14.77;55.08;98088.78;6186902;23;20185;-89
2023/04/01 03:00:17;;;;;;;3.27;1.50;;;;;;;14.73;55.23;98092.63;6185745;23;20553;-88
2023/04/01 03:02:44;;;;;;;2.63;1.30;;;;;;;14.75;55.04;98079.31;6185738;23;20158;-89
2023/04/01 03:05:09;;;;;;;4.17;1.20;;;;;;;14.83;54.67;98086.56;6185573;23;20253;-88
2023/04/01 03:07:35;;;;;;;2.83;1.30;;;;;;;14.91;54.17;98084.91;6185684;23;20241;-89
2023/04/01 03:10:01;;;;;;;2.87;1.30;;;;;;;14.87;54.79;98087.97;6186535;23;20261;-89
2023/04/01 03:12:26;;;;;;;3.57;1.20;;;;;;;14.75;55.26;98084.59;6187133;23;20173;-89
2023/04/01 03:14:52;;;;;;;4.10;1.60;;;;;;;14.64;55.69;98082.03;6160765;23;20602;-89
2023/04/01 03:17:17;;;;;;;6.03;1.33;;;;;;;14.63;56.20;98085.63;6186939;23;20157;-89
2023/04/01 03:19:43;;;;;;;8.43;1.43;;;;;;;14.55;56.31;98072.25;6160766;23;20154;-89
2023/04/01 03:22:11;;;;;;;6.93;1.60;;;;;;;14.45;57.01;98071.38;6187072;23;20229;-89
2023/04/01 03:24:36;;;;;;;4.67;1.60;;;;;;;14.59;56.44;98069.25;6186489;23;20603;-89
2023/04/01 03:27:02;;;;;;;5.50;1.73;;;;;;;14.77;55.44;98074.75;6186613;23;20157;-89
2023/04/01 03:29:27;;;;;;;3.17;1.10;;;;;;;14.89;54.85;98075.47;6160617;23;20158;-89
2023/04/01 03:31:52;;;;;;;2.40;1.00;;;;;;;14.91;54.92;98074.38;6160690;23;20181;-89
2023/04/01 03:34:18;;;;;;;4.57;1.77;;;;;;;14.82;55.91;98067.25;6187257;23;20228;-89
2023/04/01 03:36:43;;;;;;;9.10;3.10;;;;;;;14.74;55.39;98067.94;6160622;23;20158;-89
2023/04/01 03:39:09;;;;;;;5.33;2.37;;;;;;;14.82;54.90;98054.06;6160593;23;20165;-89
2023/04/01 03:41:38;;;;;;;3.47;2.10;;;;;;;14.74;55.38;98059.19;6186490;23;20233;-89
2023/04/01 03:44:03;;;;;;;7.23;2.43;;;;;;;14.84;54.64;98052.13;6160470;23;20192;-88
2023/04/01 03:46:29;;;;;;;5.13;2.10;;;;;;;14.81;54.73;98064.75;6160512;23;20244;-89
2023/04/01 03:48:54;;;;;;;6.30;2.00;;;;;;;14.72;55.40;98063.75;6186438;23;20150;-89
2023/04/01 03:51:20;;;;;;;6.57;2.50;;;;;;;14.65;55.44;98052.88;6160432;23;20154;-89
2023/04/01 03:53:45;;;;;;;6.33;2.10;;;;;;;14.60;55.25;98055.09;6160328;23;20188;-89
2023/04/01 03:56:11;;;;;;;4.87;2.30;;;;;;;14.47;55.96;98061.53;6186367;23;20147;-89
2023/04/01 03:58:37;;;;;;;5.37;2.20;;;;;;;14.47;55.53;98066.81;6186662;23;20149;-89
2023/04/01 04:01:02;;;;;;;3.90;1.97;;;;;;;14.47;56.17;98064.16;6160663;23;20151;-89
2023/04/01 04:03:27;;;;;;;5.97;2.37;;;;;;;14.52;55.89;98059.34;6186142;23;20219;-90
2023/04/01 04:05:53;;;;;;;9.10;2.70;;;;;;;14.49;55.46;98067.53;6186233;23;20633;-89
2023/04/01 04:08:21;;;;;;;4.23;2.27;;;;;;;14.42;55.54;98064.56;6186477;23;20186;-89
2023/04/01 04:10:46;;;;;;;6.00;2.23;;;;;;;14.41;56.09;98064.72;6186101;23;20175;-89
2023/04/01 04:13:12;;;;;;;5.13;2.77;;;;;;;14.35;55.84;98067.88;6185954;23;20185;-89
2023/04/01 04:15:38;;;;;;;6.33;2.37;;;;;;;14.22;56.66;98070.66;6186135;23;20144;-88
2023/04/01 04:18:04;;;;;;;6.93;2.73;;;;;;;14.15;56.54;98065.06;6160149;23;20235;-89
2023/04/01 04:20:29;;;;;;;5.53;2.37;;;;;;;14.24;56.70;98059.97;6186042;23;20215;-89
2023/04/01 04:22:54;;;;;;;3.80;2.13;;;;;;;14.08;56.79;98069.19;6186490;23;20212;-89
2023/04/01 04:25:20;;;;;;;6.50;2.20;;;;;;;14.13;56.71;98077.53;6185964;23;20663;-89
2023/04/01 04:27:45;;;;;;;5.33;2.67;;;;;;;14.10;56.66;98085.69;6160028;23;20160;-89
2023/04/01 04:30:11;;;;;;;7.70;2.40;;;;;;;14.08;56.72;98085.00;6186451;23;20153;-90
2023/04/01 04:32:37;;;;;;;5.97;2.37;;;;;;;14.06;56.91;98081.66;6186389;23;20565;-89
2023/04/01 04:35:02;;;;;;;5.53;2.47;;;;;;;14.06;57.57;98086.94;6160048;23;20152;-89
2023/04/01 04:37:28;;;;;;;7.27;2.27;;;;;;;14.04;57.42;98073.06;6186000;23;20241;-89
2023/04/01 04:39:53;;;;;;;8.33;2.47;;;;;;;14.06;57.59;98065.84;6186712;23;20154;-89
2023/04/01 04:42:19;;;;;;;9.57;3.93;;;;;;;14.08;57.32;98071.81;6185907;23;20165;-89
2023/04/01 04:44:45;;;;;;;12.37;4.77;;;;;;;14.10;57.41;98072.53;6186196;23;20174;-89
2023/04/01 04:47:10;;;;;;;11.33;3.87;;;;;;;14.08;57.47;98070.97;6186512;23;20617;-88
2023/04/01 04:49:35;;;;;;;9.40;4.20;;;;;;;14.06;57.47;98068.50;6186545;23;20150;-89
2023/04/01 04:52:01;;;;;;;5.23;2.63;;;;;;;14.07;57.43;98078.03;6185836;23;20149;-89
2023/04/01 04:54:27;;;;;;;10.27;3.00;;;;;;;14.13;57.62;98074.91;6185775;23;20181;-89
2023/04/01 04:56:53;;;;;;;6.63;3.40;;;;;;;14.16;57.57;98069.38;6185786;23;20157;-89
2023/04/01 04:59:18;;;;;;;8.27;3.47;;;;;;;14.29;57.43;98077.09;6159779;23;20407;-89
2023/04/01 05:01:43;;;;;;;7.07;3.03;;;;;;;14.32;57.41;98076.03;6186353;23;20173;-89
2023/04/01 05:04:09;;;;;;;7.33;3.17;;;;;;;14.33;57.78;98067.16;6160418;23;20590;-89
2023/04/01 05:06:34;;;;;;;13.07;4.10;;;;;;;14.38;58.37;98064.97;6159404;23;20197;-89
2023/04/01 05:09:00;;;;;;;7.20;3.27;;;;;;;14.57;58.27;98062.44;6185665;23;20652;-89
2023/04/01 05:11:26;;;;;;;5.37;2.63;;;;;;;14.83;57.73;98060.19;6185637;23;20170;-89
2023/04/01 05:13:51;;;;;;;6.07;2.53;;;;;;;15.08;56.99;98051.78;6159608;23;20155;-89
2023/04/01 05:16:19;;;;;;;6.93;2.63;;;;;;;15.30;56.05;98043.66;6185595;23;20154;-89
2023/04/01 05:18:45;;;;;;;5.07;2.53;;;;;;;15.61;55.31;98020.63;6159474;23;20162;-89
2023/04/01 05:21:12;;;;;;;6.83;2.50;;;;;;;16.18;54.01;98022.38;6160299;23;20187;-89
2023/04/01 05:23:38;;;;;;;8.10;3.17;;;;;;;16.44;52.82;98029.56;6185574;23;20151;-89
2023/04/01 05:26:10;;;;;;;9.00;3.07;;;;;;;16.42;51.72;98028.03;6185913;23;20352;-89
2023/04/01 05:28:35;;;;;;;10.53;2.80;;;;;;;16.32;51.24;98027.22;6185727;23;20152;-89
2023/04/01 05:31:03;;;;;;;3.73;2.10;;;;;;;16.19;51.70;98027.53;6185781;23;20187;-89
2023/04/01 05:33:30;;;;;;;6.53;2.80;;;;;;;16.07;51.84;98036.59;6185739;23;20157;-89
2023/04/01 05:35:55;;;;;;;8.67;3.53;;;;;;;16.01;52.38;98023.94;6185529;23;20164;-89
2023/04/01 05:38:21;;;;;;;8.07;3.30;;;;;;;16.03;52.70;98015.88;6185464;23;20152;-89
2023/04/01 05:40:47;;;;;;;10.17;3.63;;;;;;;16.19;53.67;98016.97;6185709;23;20600;-89
2023/04/01 05:43:15;;;;;;;6.90;2.70;;;;;;;16.69;53.86;98014.03;6159704;23;20161;-89
2023/04/01 05:45:51;;;;;;;10.13;3.53;;;;;;;17.56;51.89;98008.09;6159677;23;20206;-90
2023/04/01 05:48:26;;;;;;;11.30;4.33;;;;;;;18.70;47.35;97992.03;6159329;23;20146;-89
2023/04/01 05:50:51;;;;;;;13.43;5.87;;;;;;;19.28;46.54;98001.84;6186067;23;20138;-89
2023/04/01 05:53:17;;;;;;;14.37;5.80;;;;;;;19.68;45.06;98009.91;6159746;23;20164;-89
2023/04/01 05:55:42;;;;;;;11.07;4.87;;;;;;;20.87;42.77;98009.09;6185208;23;20153;-89
2023/04/01 05:58:08;;;;;;;9.03;3.83;;;;;;;22.44;40.04;98006.72;6185712;23;20185;-90
2023/04/01 06:00:33;;;;;;;10.83;3.43;;;;;;;24.07;36.68;97993.69;6185279;23;20269;-89
2023/04/01 06:02:59;;;;;;;4.23;1.97;;;;;;;25.32;33.67;98000.66;6185978;23;20220;-89
2023/04/01 06:05:28;;;;;;;3.80;1.70;;;;;;;26.47;31.50;97998.56;6185212;23;20600;-89
2023/04/01 06:08:10;;;;;;;5.77;1.90;;;;;;;27.16;29.56;97993.47;6159663;23;20165;-89
2023/04/01 06:10:50;;;;;;;3.70;1.73;;;;;;;26.44;30.45;98008.94;6168632;23;20177;-89
2023/04/01 06:13:34;;;;;;;5.07;2.03;;;;;;;26.00;32.03;97996.91;6186023;23;20148;-90
2023/04/01 06:16:17;;;;;;;4.10;1.63;;;;;;;26.98;30.95;98001.41;6185278;23;20470;-89
2023/04/01 06:19:00;;;;;;;6.13;1.87;;;;;;;27.17;30.63;98000.50;6187569;23;20205;-90
2023/04/01 06:21:37;;;;;;;5.37;1.90;;;;;;;27.04;31.55;97994.34;6187790;23;20139;-89
2023/04/01 06:24:31;;;;;;;4.13;1.47;;;;;;;26.69;31.35;97999.16;6186024;23;20575;-89
2023/04/01 06:27:16;;;;;;;5.93;1.83;;;;;;;25.94;31.58;97999.59;6186095;23;20146;-89
2023/04/01 06:30:17;;;;;;;6.60;1.80;;;;;;;25.20;32.58;97998.75;6186505;23;20225;-89
2023/04/01 06:33:19;;;;;;;4.30;1.90;;;;;;;24.38;33.85;97994.16;6186034;23;20142;-90
2023/04/01 06:36:25;;;;;;;4.47;1.60;;;;;;;23.74;35.49;97988.03;6185916;23;20158;-89
2023/04/01 06:39:06;;;;;;;6.27;2.27;;;;;;;23.18;36.05;97980.81;6187830;23;20134;-89
2023/04/01 06:41:50;;;;;;;6.87;2.13;;;;;;;22.79;36.68;97972.31;6187176;23;20150;-90
2023/04/01 06:44:30;;;;;;;12.83;3.37;;;;;;;22.33;37.78;97972.44;6188073;23;20174;-90
2023/04/01 06:47:34;;;;;;;11.60;3.53;;;;;;;21.86;39.26;97962.03;6187494;23;20146;-90
2023/04/01 06:50:25;;;;;;;9.40;2.50;;;;;;;21.41;40.55;97954.88;6182677;23;20193;-89
2023/04/01 06:53:07;;;;;;;9.27;2.77;;;;;;;20.95;40.87;97953.13;6185821;23;20189;-89
2023/04/01 06:55:52;;;;;;;15.97;4.60;;;;;;;20.64;42.00;97952.25;6185892;23;20158;-89
2023/04/01 06:58:24;;;;;;;12.87;3.90;;;;;;;20.35;42.87;97960.00;6185774;23;20153;-90
2023/04/01 07:01:07;;;;;;;7.77;3.20;;;;;;;20.28;43.39;97967.03;6186956;23;20242;-90
2023/04/01 07:03:38;;;;;;;16.00;4.67;;;;;;;20.26;43.26;97963.72;6187204;23;20550;-90
2023/04/01 07:06:22;;;;;;;14.63;5.33;;;;;;;20.20;43.95;97963.31;6187254;23;20528;-89
2023/04/01 07:08:52;;;;;;;14.60;4.10;;;;;;;20.20;44.60;97954.53;6186971;23;20227;-90
2023/04/01 07:11:45;;;;;;;9.67;3.50;;;;;;;20.46;44.03;97955.16;6186835;23;20221;-90
2023/04/01 07:14:17;;;;;;;6.53;2.87;;;;;;;20.55;43.83;97950.63;6180864;23;20170;-89
2023/04/01 07:16:52;;;;;;;8.77;4.00;;;;;;;20.68;43.85;97949.06;6186703;23;20158;-90
2023/04/01 07:19:29;;;;;;;8.43;3.00;;;;;;;20.66;43.99;97943.09;6187179;23;20489;-89
2023/04/01 07:22:17;;;;;;;11.53;3.20;;;;;;;20.74;44.70;97951.06;6187106;23;20197;-90
2023/04/01 07:24:44;;;;;;;12.10;3.83;;;;;;;20.65;45.16;97940.63;6187375;23;20173;-90
2023/04/01 07:27:12;;;;;;;8.83;3.30;;;;;;;20.59;45.08;97930.66;6187371;23;20154;-89
2023/04/01 07:29:40;;;;;;;14.83;4.00;;;;;;;20.71;45.35;97914.13;6161427;23;20165;-90
2023/04/01 07:32:39;;;;;;;8.30;3.87;;;;;;;20.58;45.32;97913.00;6160661;23;20157;-90
2023/04/01 07:35:20;;;;;;;9.67;4.57;;;;;;;20.41;46.26;97916.75;6160715;23;20217;-90
2023/04/01 07:37:52;;;;;;;12.50;4.33;;;;;;;20.39;47.22;97903.59;6186984;23;20138;-90
2023/04/01 07:40:27;;;;;;;10.90;3.87;;;;;;;20.36;47.53;97895.16;6187358;23;20139;-89
2023/04/01 07:43:07;;;;;;;9.57;3.67;;;;;;;20.67;47.72;97885.34;6186771;23;20496;-89
2023/04/01 07:45:59;;;;;;;13.93;4.50;;;;;;;20.99;47.34;97885.16;6186818;23;20741;-89
2023/04/01 07:49:00;;;;;;;12.73;3.70;;;;;;;20.92;48.68;97873.56;6161028;23;20555;-88
2023/04/01 07:51:58;;;;;;;8.93;1.67;;;;;;;21.11;49.28;97867.81;6135198;23;20161;-89
2023/04/01 07:54:51;;;;;;;6.80;2.17;;;;;;;21.58;48.90;97875.59;6160535;23;20151;-88
2023/04/01 07:57:34;;;;;;;6.20;1.67;;;;;;;22.01;47.81;97860.69;6159884;23;20159;-90
2023/04/01 08:00:33;;;;;;;5.83;1.63;;;;;;;21.96;47.02;97855.06;6186958;23;20138;-91
2023/04/01 08:03:27;;;;;;;7.87;2.17;;;;;;;22.26;46.31;97854.06;6187247;23;20145;-89
2023/04/01 08:06:06;;;;;;;8.03;1.73;;;;;;;22.18;45.57;97851.50;6133603;23;20240;-92
2023/04/01 08:09:22;;;;;;;8.73;1.67;;;;;;;22.22;46.05;97842.09;6160438;23;20589;-90
2023/04/01 08:12:09;;;;;;;17.53;2.03;;;;;;;22.40;46.20;97831.88;6042443;23;20582;-91
2023/04/01 08:15:14;;;;;;;6.87;1.70;;;;;;;22.49;46.69;97822.72;6186934;23;20208;-88
2023/04/01 08:17:57;;;;;;;5.57;1.57;;;;;;;22.48;45.03;97815.72;6186739;23;20142;-89
2023/04/01 08:20:36;;;;;;;8.37;1.67;;;;;;;22.32;45.79;97817.78;6186317;23;20169;-91
2023/04/01 08:23:10;;;;;;;6.03;1.70;;;;;;;22.36;45.79;97811.88;6174631;23;20204;-88
2023/04/01 08:25:46;;;;;;;9.83;1.77;;;;;;;22.27;44.88;97807.69;6187135;23;20494;-90
2023/04/01 08:28:24;;;;;;;12.63;2.33;;;;;;;21.82;45.56;97807.84;6186170;23;20511;-90
2023/04/01 08:30:58;;;;;;;6.10;1.90;;;;;;;21.52;46.41;97817.63;6184187;23;20237;-92
2023/04/01 08:33:32;;;;;;;9.77;1.50;;;;;;;21.62;46.24;97820.06;6183403;23;20165;-90
2023/04/01 08:36:03;;;;;;;5.73;1.50;;;;;;;21.66;46.34;97800.84;6185077;23;20165;-93
2023/04/01 08:38:37;;;;;;;4.33;1.87;;;;;;;21.81;46.58;97792.84;6184867;23;20162;-93
2023/04/01 08:41:25;;;;;;;9.80;1.77;;;;;;;21.56;46.06;97792.28;6185783;23;20145;-93
2023/04/01 08:43:53;;;;;;;7.60;1.53;;;;;;;21.36;46.10;97809.78;6184833;23;20185;-90
2023/04/01 08:46:41;;;;;;;15.47;1.97;;;;;;;21.32;46.76;97798.69;6184599;23;20159;-88
2023/04/01 08:49:40;;;;;;;5.60;2.13;;;;;;;21.44;46.46;97805.22;6128787;23;20576;-92
2023/04/01 08:52:08;;;;;;;15.37;2.47;;;;;;;21.41;46.52;97810.91;6185909;23;20475;-92
2023/04/01 08:55:02;;;;;;;12.93;2.23;;;;;;;21.40;47.17;97790.59;6185982;23;20177;-90
2023/04/01 08:57:42;;;;;;;7.93;2.00;;;;;;;21.21;47.39;97791.09;6184527;23;20523;-92
2023/04/01 09:00:11;;;;;;;7.77;1.60;;;;;;;21.31;47.33;97790.84;6186221;23;20142;-89
2023/04/01 09:02:57;;;;;;;6.80;1.80;;;;;;;21.41;47.45;97784.25;6185835;23;20278;-88
2023/04/01 09:05:44;;;;;;;8.50;1.70;;;;;;;21.37;47.64;97774.13;6184788;23;20179;-90
2023/04/01 09:08:31;;;;;;;5.37;2.07;;;;;;;21.18;47.22;97772.81;6186498;23;20143;-89
2023/04/01 09:11:17;;;;;;;9.67;2.20;;;;;;;21.32;47.79;97760.53;6185642;23;20162;-90
2023/04/01 09:14:04;;;;;;;19.07;3.87;;;;;;;21.34;48.13;97763.84;6159788;23;20530;-90
2023/04/01 09:16:51;;;;;;;7.47;2.27;;;;;;;21.32;48.53;97745.38;6186389;23;20135;-89
2023/04/01 09:19:25;;;;;;;14.40;2.33;;;;;;;21.62;48.16;97737.41;6186075;23;20220;-88
2023/04/01 09:22:25;;;;;;;5.03;1.77;;;;;;;21.70;47.28;97727.44;6159776;23;20150;-89
2023/04/01 09:25:30;;;;;;;8.87;1.97;;;;;;;21.67;47.29;97716.34;6159830;23;20175;-90
2023/04/01 09:28:30;;;;;;;10.20;1.53;;;;;;;21.68;46.69;97709.97;6039022;23;20168;-93
2023/04/01 09:31:25;;;;;;;8.77;1.87;;;;;;;21.59;46.80;97711.09;6186251;23;20146;-92
2023/04/01 09:33:53;;;;;;;11.73;2.70;;;;;;;21.85;46.29;97696.28;6159864;23;20138;-92
2023/04/01 09:36:33;;;;;;;7.03;1.50;;;;;;;21.70;45.73;97682.09;6186130;23;20209;-94
2023/04/01 09:39:30;;;;;;;7.43;1.53;;;;;;;21.53;46.57;97679.84;6186259;23;20145;-89
2023/04/01 09:42:26;;;;;;;9.67;1.83;;;;;;;21.75;45.95;97679.72;6185858;23;20130;-92
2023/04/01 09:45:21;;;;;;;12.70;1.40;;;;;;;21.86;46.10;97678.44;6185929;23;20176;-91
2023/04/01 09:48:01;;;;;;;9.47;1.77;;;;;;;22.03;45.78;97672.72;6153827;23;20169;-91
2023/04/01 09:50:50;;;;;;;7.80;1.67;;;;;;;22.10;45.47;97672.78;6185983;23;20205;-90
2023/04/01 09:54:03;;;;;;;6.13;1.97;;;;;;;22.20;45.29;97659.13;6159738;23;20641;-89
2023/04/01 09:57:06;;;;;;;6.20;1.57;;;;;;;22.16;44.51;97658.69;6037929;23;20278;-92
2023/04/01 10:00:26;;;;;;;7.20;1.70;;;;;;;22.38;44.34;97644.31;6159525;23;20138;-90
2023/04/01 10:03:03;;;;;;;4.17;0.97;;;;;;;22.23;42.87;97642.72;6159888;23;20158;-91
2023/04/01 10:06:08;;;;;;;7.13;1.97;;;;;;;22.25;42.56;97635.38;6159907;23;20620;-93
2023/04/01 10:09:28;;;;;;;4.43;1.43;;;;;;;22.04;42.38;97614.81;6186108;23;20130;-90
2023/04/01 10:12:54;;;;;;;15.47;1.67;;;;;;;21.87;42.92;97622.25;6038255;23;20192;-90
2023/04/01 10:15:57;;;;;;;5.00;1.47;;;;;;;21.49;43.30;97609.25;6122510;23;20160;-90
2023/04/01 10:18:25;;;;;;;5.67;1.27;;;;;;;21.67;44.04;97597.13;6159317;23;20216;-90
2023/04/01 10:21:14;;;;;;;6.17;1.90;;;;;;;21.76;43.51;97588.03;6160660;23;20154;-91
2023/04/01 10:24:17;;;;;;;4.17;1.10;;;;;;;21.76;43.24;97579.19;6185344;23;20155;-90
2023/04/01 10:27:13;;;;;;;7.10;1.70;;;;;;;21.58;42.91;97578.78;6158866;23;20162;-91
2023/04/01 10:29:50;;;;;;;5.73;1.63;;;;;;;21.76;42.73;97574.69;6185582;23;20143;-91
2023/04/01 10:33:19;;;;;;;4.43;1.40;;;;;;;21.72;42.76;97567.25;6159705;23;20632;-91
2023/04/01 10:36:21;;;;;;;7.90;1.20;;;;;;;21.39;42.73;97570.34;6089904;23;20233;-92
2023/04/01 10:39:22;;;;;;;3.13;0.90;;;;;;;21.71;43.11;97574.44;6159905;23;20154;-92
2023/04/01 10:42:18;;;;;;;6.60;1.53;;;;;;;21.87;43.53;97587.56;6114465;23;20561;-91
2023/04/01 10:45:05;;;;;;;5.83;1.40;;;;;;;21.92;43.76;97576.31;6185270;23;20610;-91
2023/04/01 10:47:48;;;;;;;6.33;1.00;;;;;;;22.08;43.37;97583.25;6160834;23;20155;-89
2023/04/01 10:50:23;;;;;;;8.53;1.93;;;;;;;22.26;42.70;97579.13;6158874;23;20155;-94
2023/04/01 10:53:11;;;;;;;9.20;1.50;;;;;;;22.35;42.25;97575.28;6185854;23;20142;-92
2023/04/01 10:56:18;;;;;;;9.27;1.77;;;;;;;22.32;42.31;97586.38;6185797;23;20213;-94
2023/04/01 10:59:14;;;;;;;6.13;1.40;;;;;;;22.12;42.64;97569.34;6095586;23;20156;-93
2023/04/01 11:01:58;;;;;;;14.83;1.63;;;;;;;22.07;42.62;97561.06;6071822;23;20164;-91
2023/04/01 11:05:05;;;;;;;9.73;1.37;;;;;;;22.29;43.08;97560.06;6071297;23;20184;-91
2023/04/01 11:11:18;;;;;;;5.97;1.00;;;;;;;22.17;42.44;97564.25;6110868;23;20234;-93
2023/04/01 11:17:42;;;;;;;7.03;1.17;;;;;;;22.15;41.94;97544.09;6128332;23;20605;-91
2023/04/01 11:24:16;;;;;;;14.57;2.30;;;;;;;21.71;41.48;97557.59;6157662;23;20161;-92
2023/04/01 11:27:28;;;;;;;5.63;1.53;;;;;;;21.42;41.57;97556.66;6158134;23;20658;-90
2023/04/01 11:30:19;;;;;;;8.07;1.20;;;;;;;21.10;42.67;97534.91;6145803;23;20147;-93
2023/04/01 11:36:35;;;;;;;9.43;1.60;;;;;;;21.15;43.04;97533.34;6080876;23;20602;-92
2023/04/01 11:39:23;;;;;;;5.93;1.57;;;;;;;21.16;42.66;97516.38;6132460;23;20546;-94
2023/04/01 11:42:29;;;;;;;9.27;1.57;;;;;;;20.98;43.40;97518.56;6130838;23;20229;-91
2023/04/01 11:45:46;;;;;;;7.40;1.70;;;;;;;20.89;43.54;97526.81;6132103;23;20183;-92
2023/04/01 11:48:55;;;;;;;6.47;1.33;;;;;;;20.79;43.52;97524.44;6158259;23;20140;-92
2023/04/01 11:51:42;;;;;;;9.57;1.67;;;;;;;20.77;44.06;97524.63;6131558;23;20155;-88
2023/04/01 11:57:37;;;;;;;4.13;1.40;;;;;;;20.69;44.79;97500.75;6067247;23;20653;-90
2023/04/01 12:01:10;;;;;;;10.57;1.77;;;;;;;20.89;45.07;97497.50;6044244;23;20215;-94
2023/04/01 12:03:56;;;;;;;7.40;1.40;;;;;;;20.75;44.61;97488.56;5979817;23;20276;-90
2023/04/01 12:06:45;;;;;;;5.30;1.40;;;;;;;20.62;45.29;97483.03;6040166;23;20149;-89
2023/04/01 12:09:41;;;;;;;9.80;1.83;;;;;;;20.94;45.41;97466.66;6039455;23;20240;-94
2023/04/01 12:13:07;;;;;;;7.23;1.50;;;;;;;21.10;44.50;97460.31;6053593;23;20173;-91
2023/04/01 12:15:41;;;;;;;3.20;1.10;;;;;;;21.32;44.49;97462.84;6065619;23;20153;-90
2023/04/01 12:18:12;;;;;;;15.80;2.37;;;;;;;21.50;45.04;97466.91;6072136;23;20152;-90
2023/04/01 12:21:11;;;;;;;5.73;1.20;;;;;;;21.69;44.27;97447.63;6150892;23;20166;-92
2023/04/01 12:23:49;;;;;;;;;;;;;;;;;;;;;
2023/04/01 12:27:08;;;;;;;14.20;1.87;;;;;;;21.83;43.55;97455.53;6186129;23;20233;-92
2023/04/01 12:29:58;;;;;;;19.40;1.90;;;;;;;22.33;42.39;97448.38;6159539;23;20162;-94
2023/04/01 12:32:48;;;;;;;11.33;1.67;;;;;;;22.82;41.92;97449.13;6185297;23;20154;-91
2023/04/01 12:35:51;;;;;;;5.10;1.53;;;;;;;22.91;40.63;97441.72;6187356;23;20131;-94
2023/04/01 12:41:51;;;;;;;9.00;1.63;;;;;;;23.22;39.79;97434.03;6125980;23;20155;-93
2023/04/01 12:45:39;;;;;;;10.87;1.47;;;;;;;23.47;39.97;97427.16;6125249;23;20262;-93
2023/04/01 12:48:36;;;;;;;9.13;1.93;;;;;;;23.94;38.87;97414.63;6125094;23;20247;-94